createdAt,value
2022-12-08T00:05:05.632Z,13.57
2022-12-08T00:10:39.530Z,14.33
2022-12-08T00:15:30.421Z,14.03
2022-12-08T00:20:32.191Z,14.23
2022-12-08T00:25:37.239Z,14.03
2022-12-08T00:30:42.661Z,13.27
2022-12-08T00:35:44.378Z,15.27
2022-12-08T00:40:47.848Z,15.00
2022-12-08T00:45:49.766Z,14.90
2022-12-08T00:50:51.727Z,13.77
2022-12-08T00:55:53.790Z,15.67
2022-12-08T01:00:55.638Z,15.33
2022-12-08T01:06:02.442Z,12.67
2022-12-08T01:11:10.000Z,13.80
2022-12-08T01:16:23.107Z,14.40
2022-12-08T01:21:25.354Z,14.73
2022-12-08T01:26:27.572Z,14.37
2022-12-08T01:31:29.506Z,13.97
2022-12-08T01:36:34.051Z,13.73
2022-12-08T01:41:39.294Z,15.10
2022-12-08T01:46:43.035Z,15.40
2022-12-08T01:51:50.616Z,13.53
2022-12-08T01:57:03.595Z,14.83
2022-12-08T02:02:05.568Z,13.40
2022-12-08T02:07:10.090Z,14.97
2022-12-08T02:12:12.166Z,14.60
2022-12-08T02:17:37.247Z,14.33
2022-12-08T02:22:45.187Z,15.80
2022-12-08T02:28:13.251Z,16.40
2022-12-08T02:33:39.987Z,15.37
2022-12-08T02:38:59.418Z,15.80
2022-12-08T02:44:11.006Z,17.93
2022-12-08T02:49:15.152Z,16.53
2022-12-08T02:54:17.259Z,16.53
2022-12-08T02:59:36.012Z,16.70
2022-12-08T03:04:50.178Z,16.20
2022-12-08T03:10:01.099Z,17.40
2022-12-08T03:15:08.694Z,15.33
2022-12-08T03:20:14.406Z,17.40
2022-12-08T03:25:21.754Z,16.80
2022-12-08T03:30:23.769Z,13.87
2022-12-08T03:35:33.084Z,15.67
2022-12-08T03:40:34.990Z,16.40
2022-12-08T03:45:37.073Z,17.43
2022-12-08T03:50:38.991Z,18.37
2022-12-08T03:55:40.867Z,18.30
2022-12-08T04:00:42.771Z,17.77
2022-12-08T04:05:44.499Z,19.23
2022-12-08T04:10:46.256Z,16.23
2022-12-08T04:15:49.015Z,17.67
2022-12-08T04:20:50.881Z,17.33
2022-12-08T04:25:53.283Z,16.40
2022-12-08T04:30:55.292Z,16.03
2022-12-08T04:35:57.599Z,14.43
2022-12-08T04:40:59.498Z,15.83
2022-12-08T04:46:01.426Z,15.77
2022-12-08T04:51:03.663Z,14.07
2022-12-08T04:56:05.485Z,13.30
2022-12-08T05:01:07.773Z,16.47
2022-12-08T05:06:12.432Z,15.83
2022-12-08T05:11:14.283Z,16.33
2022-12-08T05:16:16.676Z,14.63
2022-12-08T05:21:18.694Z,16.60
2022-12-08T05:26:20.567Z,14.47
2022-12-08T05:31:22.790Z,14.97
2022-12-08T05:36:24.631Z,15.50
2022-12-08T05:41:26.546Z,16.10
2022-12-08T05:46:28.590Z,14.43
2022-12-08T05:51:30.844Z,13.40
2022-12-08T05:56:32.651Z,12.67
2022-12-08T06:01:34.843Z,12.57
2022-12-08T06:06:36.976Z,14.30
2022-12-08T06:11:38.919Z,15.40
2022-12-08T06:16:40.927Z,13.53
2022-12-08T06:21:42.792Z,13.87
2022-12-08T06:26:44.797Z,14.47
2022-12-08T06:31:46.751Z,12.50
2022-12-08T06:36:48.640Z,11.00
2022-12-08T06:42:09.348Z,12.90
2022-12-08T06:47:11.384Z,12.63
2022-12-08T06:52:13.151Z,11.23
2022-12-08T06:57:14.883Z,12.17
2022-12-08T07:02:17.250Z,12.13
2022-12-08T07:07:19.238Z,11.50
2022-12-08T07:12:21.395Z,12.47
2022-12-08T07:17:23.145Z,12.80
2022-12-08T07:22:24.890Z,12.10
2022-12-08T07:27:26.676Z,12.30
2022-12-08T07:32:28.730Z,12.27
2022-12-08T07:37:30.671Z,12.17
2022-12-08T07:42:32.596Z,11.20
2022-12-08T07:47:34.482Z,12.97
2022-12-08T07:52:36.453Z,12.40
2022-12-08T07:57:38.647Z,13.10
2022-12-08T08:02:41.183Z,12.40
2022-12-08T08:07:43.706Z,12.33
2022-12-08T08:12:45.573Z,12.07
2022-12-08T08:17:51.525Z,12.57
2022-12-08T08:22:53.562Z,13.00
2022-12-08T08:27:55.562Z,13.20
2022-12-08T08:32:57.469Z,13.63
2022-12-08T08:37:59.396Z,13.00
2022-12-08T08:43:01.960Z,13.53
2022-12-08T08:48:04.046Z,13.37
2022-12-08T08:53:05.816Z,14.60
2022-12-08T08:58:07.783Z,14.10
2022-12-08T09:03:12.618Z,13.67
2022-12-08T09:08:15.584Z,14.20
2022-12-08T09:13:22.219Z,12.93
2022-12-08T09:18:23.995Z,13.53
2022-12-08T09:23:29.362Z,13.67
2022-12-08T09:28:34.057Z,13.33
2022-12-08T09:33:36.381Z,14.67
2022-12-08T09:38:39.465Z,15.37
2022-12-08T09:44:13.725Z,13.37
2022-12-08T09:49:20.420Z,13.47
2022-12-08T09:54:29.884Z,13.40
2022-12-08T09:59:34.402Z,13.57
2022-12-08T10:04:38.480Z,14.13
2022-12-08T10:10:03.436Z,13.27
2022-12-08T10:15:22.879Z,12.70
2022-12-08T10:20:37.114Z,13.10
2022-12-08T10:25:47.684Z,13.53
2022-12-08T10:30:49.777Z,12.90
2022-12-08T10:35:54.713Z,13.20
2022-12-08T10:41:09.023Z,12.97
2022-12-08T10:46:22.006Z,12.17
2022-12-08T10:51:28.886Z,13.00
2022-12-08T10:56:31.393Z,13.03
2022-12-08T11:01:38.103Z,12.83
2022-12-08T11:06:41.469Z,12.70
2022-12-08T11:12:22.364Z,13.90
2022-12-08T11:17:26.742Z,11.00
2022-12-08T11:22:34.104Z,11.00
2022-12-08T11:27:38.345Z,11.57
2022-12-08T11:32:44.571Z,9.63
2022-12-08T11:37:46.952Z,9.70
2022-12-08T11:43:30.158Z,9.13
2022-12-08T11:48:40.174Z,8.57
2022-12-08T11:53:46.774Z,8.67
2022-12-08T11:58:57.595Z,8.57
2022-12-08T12:04:05.072Z,9.13
2022-12-08T12:09:33.262Z,9.00
2022-12-08T12:15:12.887Z,8.27
2022-12-08T12:20:23.793Z,9.30
2022-12-08T12:25:27.247Z,7.83
2022-12-08T12:30:58.798Z,7.33
2022-12-08T12:36:07.787Z,7.33
2022-12-08T12:41:12.598Z,6.03
2022-12-08T12:46:23.761Z,8.73
2022-12-08T12:51:44.739Z,7.13
2022-12-08T12:56:49.802Z,6.57
2022-12-08T13:01:55.353Z,6.37
2022-12-08T13:06:57.796Z,6.87
2022-12-08T13:12:09.255Z,9.93
2022-12-08T13:17:14.200Z,9.53
2022-12-08T13:22:47.023Z,6.70
2022-12-08T13:27:53.464Z,7.27
2022-12-08T13:38:22.667Z,7.43
2022-12-08T13:44:20.212Z,5.47
2022-12-08T13:56:24.291Z,5.23
2022-12-08T14:00:14.552Z,0.80
2022-12-08T14:05:40.507Z,1.77
2022-12-08T14:10:40.995Z,1.40
2022-12-08T14:15:42.894Z,3.17
2022-12-08T14:21:18.951Z,6.10
2022-12-08T14:26:06.908Z,0.73
2022-12-08T14:31:09.157Z,1.37
2022-12-08T14:36:14.599Z,3.57
2022-12-08T14:41:16.532Z,1.20
2022-12-08T14:46:23.204Z,0.93
2022-12-08T14:51:32.145Z,1.20
2022-12-08T14:56:37.366Z,0.90
2022-12-08T15:01:41.342Z,1.40
2022-12-08T15:07:07.200Z,1.63
2022-12-08T15:12:12.209Z,1.80
2022-12-08T15:17:40.892Z,1.60
2022-12-08T15:22:42.996Z,3.10
2022-12-08T15:27:50.453Z,1.87
2022-12-08T15:32:54.148Z,10.30
2022-12-08T15:37:56.369Z,15.43
2022-12-08T15:42:58.451Z,9.27
2022-12-08T15:48:00.829Z,4.83
2022-12-08T15:53:02.999Z,4.87
2022-12-08T15:58:51.891Z,5.17
2022-12-08T16:09:06.340Z,6.13
2022-12-08T16:15:01.975Z,5.23
2022-12-08T16:19:35.778Z,6.27
2022-12-08T16:24:37.763Z,7.67
2022-12-08T16:29:39.596Z,6.73
2022-12-08T16:34:41.914Z,7.87
2022-12-08T16:39:46.112Z,7.27
2022-12-08T16:44:48.243Z,6.93
2022-12-08T16:49:50.319Z,8.30
2022-12-08T16:54:52.434Z,7.00
2022-12-08T16:59:54.197Z,6.10
2022-12-08T17:04:56.070Z,7.00
2022-12-08T17:09:58.851Z,7.03
2022-12-08T17:15:03.507Z,7.43
2022-12-08T17:20:28.123Z,8.13
2022-12-08T17:25:30.060Z,11.20
2022-12-08T17:30:32.093Z,11.53
2022-12-08T17:35:36.480Z,11.67
2022-12-08T17:40:38.479Z,11.10
2022-12-08T17:45:45.766Z,10.27
2022-12-08T17:50:47.976Z,11.60
2022-12-08T17:55:55.710Z,12.07
2022-12-08T18:00:57.901Z,12.90
2022-12-08T18:06:08.196Z,10.07
2022-12-08T18:11:16.527Z,12.50
2022-12-08T18:16:20.934Z,12.13
2022-12-08T18:21:23.815Z,13.47
2022-12-08T18:26:25.875Z,9.27
2022-12-08T18:31:28.015Z,10.13
2022-12-08T18:36:30.276Z,12.27
2022-12-08T18:41:32.243Z,11.63
2022-12-08T18:46:34.131Z,12.13
2022-12-08T18:51:36.021Z,10.50
2022-12-08T18:56:38.657Z,10.67
2022-12-08T19:01:40.950Z,11.10
2022-12-08T19:06:44.385Z,11.47
2022-12-08T19:11:47.244Z,9.87
2022-12-08T19:16:50.377Z,11.97
2022-12-08T19:21:52.444Z,14.40
2022-12-08T19:26:54.310Z,14.43
2022-12-08T19:31:56.284Z,12.60
2022-12-08T19:36:58.080Z,10.87
2022-12-08T19:42:18.496Z,11.73
2022-12-08T19:47:22.835Z,12.10
2022-12-08T19:52:24.691Z,11.67
2022-12-08T19:57:26.659Z,11.97
2022-12-08T20:02:29.430Z,11.07
2022-12-08T20:07:31.461Z,10.77
2022-12-08T20:12:33.434Z,11.83
2022-12-08T20:17:35.253Z,11.90
2022-12-08T20:22:37.279Z,11.97
2022-12-08T20:27:39.321Z,11.47
2022-12-08T20:32:41.249Z,13.17
2022-12-08T20:37:43.260Z,12.13
2022-12-08T20:42:45.118Z,11.73
2022-12-08T20:47:46.947Z,10.77
2022-12-08T20:52:49.040Z,12.37
2022-12-08T20:57:51.296Z,12.97
2022-12-08T21:02:56.838Z,11.87
2022-12-08T21:07:59.454Z,12.73
2022-12-08T21:13:05.483Z,12.73
2022-12-08T21:18:07.446Z,11.93
2022-12-08T21:23:09.786Z,12.27
2022-12-08T21:28:12.158Z,11.73
2022-12-08T21:33:14.419Z,10.73
2022-12-08T21:38:16.475Z,10.43
2022-12-08T21:43:18.831Z,10.17
2022-12-08T21:48:20.732Z,10.23
2022-12-08T21:53:26.460Z,13.73
2022-12-08T21:58:28.557Z,11.20
2022-12-08T22:03:30.773Z,9.90
2022-12-08T22:08:33.308Z,12.40
2022-12-08T22:13:37.019Z,11.83
2022-12-08T22:18:39.234Z,10.60
2022-12-08T22:23:41.338Z,12.57
2022-12-08T22:28:44.479Z,14.03
2022-12-08T22:33:47.592Z,13.70
2022-12-08T22:38:50.857Z,13.20
2022-12-08T22:43:52.773Z,13.37
2022-12-08T22:48:54.727Z,13.00
2022-12-08T22:53:56.830Z,12.57
2022-12-08T22:58:59.013Z,13.43
2022-12-08T23:04:01.622Z,13.97
2022-12-08T23:09:04.283Z,12.67
2022-12-08T23:14:06.304Z,13.23
2022-12-08T23:19:08.612Z,13.27
2022-12-08T23:24:10.515Z,13.43
2022-12-08T23:29:12.850Z,12.17
2022-12-08T23:34:14.816Z,14.43
2022-12-08T23:39:17.186Z,13.07
2022-12-08T23:44:19.278Z,12.83
2022-12-08T23:49:22.928Z,14.47
2022-12-08T23:54:24.820Z,13.57
2022-12-08T23:59:26.750Z,12.63
